Time;durP1;ratioP1;P1;durP2;ratioP2;P2;SDS_P1;SDS_P2;PMS_P1;PMS_P2;Temp;Humidity;BMP_temperature;BMP_pressure;BME280_temperature;BME280_humidity;BME280_pressure;Samples;Min_cycle;Max_cycle;Signal;HPM_P1;HPM_P2
2022/12/28 00:01:43;;;;;;;;;;;;;;;;;;5072490;28;19947;-78
2022/12/28 00:04:30;;;;;;;;;;;;;;;;;;5072173;28;19919;-79
2022/12/28 00:07:16;;;;;;;;;;;;;;;;;;5077061;28;19916;-76
2022/12/28 00:10:03;;;;;;;;;;;;;;;;;;5064881;28;20311;-76
2022/12/28 00:12:49;;;;;;;;;;;;;;;;;;5078495;28;19923;-77
2022/12/28 00:15:36;;;;;;;;;;;;;;;;;;5079341;28;19916;-76
2022/12/28 00:18:22;;;;;;;;;;;;;;;;;;5071909;28;20176;-77
2022/12/28 00:21:09;;;;;;;;;;;;;;;;;;5081555;28;20227;-77
2022/12/28 00:23:55;;;;;;;;;;;;;;;;;;5076496;28;19920;-76
2022/12/28 00:26:42;;;;;;;;;;;;;;;;;;5080077;28;19917;-76
2022/12/28 00:29:28;;;;;;;;;;;;;;;;;;5076672;28;19913;-75
2022/12/28 00:32:15;;;;;;;;;;;;;;;;;;5074376;28;20481;-75
2022/12/28 00:35:01;;;;;;;;;;;;;;;;;;5073379;28;19916;-76
2022/12/28 00:37:48;;;;;;;;;;;;;;;;;;5077807;28;19916;-77
2022/12/28 00:40:34;;;;;;;;;;;;;;;;;;5082420;28;19916;-74
2022/12/28 00:43:20;;;;;;;;;;;;;;;;;;5075266;28;20355;-76
2022/12/28 00:46:07;;;;;;;;;;;;;;;;;;5077158;28;19915;-76
2022/12/28 00:48:53;;;;;;;;;;;;;;;;;;5080081;28;20283;-77
2022/12/28 00:51:40;;;;;;;;;;;;;;;;;;5077886;28;20371;-77
2022/12/28 00:54:27;;;;;;;;;;;;;;;;;;5077413;28;19913;-77
2022/12/28 00:57:14;;;;;;;;;;;;;;;;;;5084689;28;20439;-78
2022/12/28 01:00:00;;;;;;;;;;;;;;;;;;5074321;28;19916;-78
2022/12/28 01:02:48;;;;;;;;;;;;;;;;;;5074892;28;19923;-78
2022/12/28 01:05:34;;;;;;;;;;;;;;;;;;5071241;28;19927;-80
2022/12/28 01:08:21;;;;;;;;;;;;;;;;;;5073365;28;19916;-76
2022/12/28 01:11:07;;;;;;;;;;;;;;;;;;5067206;28;19916;-77
2022/12/28 01:13:54;;;;;;;;;;;;;;;;;;5069351;28;20382;-76
2022/12/28 01:16:40;;;;;;;;;;;;;;;;;;5071823;28;20469;-79
2022/12/28 01:19:27;;;;;;;;;;;;;;;;;;5073799;28;19924;-77
2022/12/28 01:22:15;;;;;;;;;;;;;;;;;;5077701;28;19920;-78
2022/12/28 01:25:02;;;;;;;;;;;;;;;;;;5072609;28;19930;-77
2022/12/28 01:27:48;;;;;;;;;;;;;;;;;;5071225;28;19922;-75
2022/12/28 01:30:35;;;;;;;;;;;;;;;;;;5073523;28;20480;-73
2022/12/28 01:33:21;;;;;;;;;;;;;;;;;;5065952;28;19912;-76
2022/12/28 01:36:08;;;;;;;;;;;;;;;;;;5072347;28;19927;-73
2022/12/28 01:38:54;;;;;;;;;;;;;;;;;;5073177;28;19916;-75
2022/12/28 01:41:41;;;;;;;;;;;;;;;;;;5075325;28;19962;-75
2022/12/28 01:44:27;;;;;;;;;;;;;;;;;;5073353;28;19916;-75
2022/12/28 01:47:14;;;;;;;;;;;;;;;;;;5055033;28;19932;-74
2022/12/28 01:50:00;;;;;;;;;;;;;;;;;;5070035;28;19916;-75
2022/12/28 01:52:47;;;;;;;;;;;;;;;;;;5073313;28;20490;-75
2022/12/28 01:55:33;;;;;;;;;;;;;;;;;;5074805;28;19916;-75
2022/12/28 01:58:20;;;;;;;;;;;;;;;;;;5074838;28;19928;-74
2022/12/28 02:01:06;;;;;;;;;;;;;;;;;;5073606;28;19957;-74
2022/12/28 02:03:53;;;;;;;;;;;;;;;;;;5063710;28;20387;-75
2022/12/28 02:06:39;;;;;;;;;;;;;;;;;;5072916;28;19932;-74
2022/12/28 02:09:26;;;;;;;;;;;;;;;;;;5072808;28;20383;-74
2022/12/28 02:12:12;;;;;;;;;;;;;;;;;;5073856;28;19927;-75
2022/12/28 02:14:59;;;;;;;;;;;;;;;;;;5076855;28;19919;-75
2022/12/28 02:17:45;;;;;;;;;;;;;;;;;;5072469;28;19928;-76
2022/12/28 02:20:32;;;;;;;;;;;;;;;;;;5069954;28;19912;-78
2022/12/28 02:23:18;;;;;;;;;;;;;;;;;;5070879;28;20402;-75
2022/12/28 02:26:05;;;;;;;;;;;;;;;;;;5073073;28;19926;-76
2022/12/28 02:28:51;;;;;;;;;;;;;;;;;;5074181;28;19951;-76
2022/12/28 02:31:38;;;;;;;;;;;;;;;;;;5083377;28;19916;-76
2022/12/28 02:34:24;;;;;;;;;;;;;;;;;;5073070;28;19912;-77
2022/12/28 02:37:11;;;;;;;;;;;;;;;;;;5071239;28;19931;-77
2022/12/28 02:39:57;;;;;;;;;;;;;;;;;;5078067;28;19928;-76
2022/12/28 02:42:44;;;;;;;;;;;;;;;;;;5073886;28;19912;-74
2022/12/28 02:51:41;;;;;;;;;;;;;;;;;;5071062;28;19916;-76
2022/12/28 02:57:33;;;;;;;;;;;;;;;;;;5068971;28;20679;-77
2022/12/28 03:00:19;;;;;;;;;;;;;;;;;;5070034;28;20663;-76
2022/12/28 03:03:06;;;;;;;;;;;;;;;;;;5072803;28;19912;-75
2022/12/28 03:08:58;;;;;;;;;;;;;;;;;;5069670;28;19916;-75
2022/12/28 03:11:44;;;;;;;;;;;;;;;;;;5068946;28;19913;-77
2022/12/28 03:14:30;;;;;;;;;;;;;;;;;;5075030;28;19931;-75
2022/12/28 03:32:44;;;;;;;;;;;;;;;;;;5074569;28;19924;-76
2022/12/28 03:35:31;;;;;;;;;;;;;;;;;;5074050;28;19912;-76
2022/12/28 03:38:25;;;;;;;;;;;;;;;;;;5057531;28;19936;-77
2022/12/28 03:41:12;;;;;;;;;;;;;;;;;;5074063;28;19916;-76
2022/12/28 03:43:58;;;;;;;;;;;;;;;;;;5078113;28;19920;-76
2022/12/28 03:46:46;;;;;;;;;;;;;;;;;;5069854;28;19912;-76
2022/12/28 03:49:33;;;;;;;;;;;;;;;;;;5076617;28;19912;-76
2022/12/28 03:52:19;;;;;;;;;;;;;;;;;;5073644;28;19918;-74
2022/12/28 03:55:06;;;;;;;;;;;;;;;;;;5071994;28;20427;-75
2022/12/28 03:57:52;;;;;;;;;;;;;;;;;;5056867;28;19919;-76
2022/12/28 04:00:39;;;;;;;;;;;;;;;;;;5069835;28;19924;-77
2022/12/28 04:03:25;;;;;;;;;;;;;;;;;;5074265;28;19912;-77
2022/12/28 04:06:12;;;;;;;;;;;;;;;;;;5076209;28;19919;-78
2022/12/28 04:08:58;;;;;;;;;;;;;;;;;;5062931;28;19943;-77
2022/12/28 04:11:45;;;;;;;;;;;;;;;;;;5074682;28;19912;-75
2022/12/28 04:14:31;;;;;;;;;;;;;;;;;;5077670;28;19915;-75
2022/12/28 04:17:18;;;;;;;;;;;;;;;;;;5074373;28;19922;-75
2022/12/28 04:20:04;;;;;;;;;;;;;;;;;;5070708;28;19950;-76
2022/12/28 04:22:51;;;;;;;;;;;;;;;;;;5072841;28;20448;-75
2022/12/28 04:25:37;;;;;;;;;;;;;;;;;;5076725;28;19924;-75
2022/12/28 04:28:24;;;;;;;;;;;;;;;;;;5074716;28;19919;-76
2022/12/28 04:31:10;;;;;;;;;;;;;;;;;;5055197;28;20147;-76
2022/12/28 04:33:57;;;;;;;;;;;;;;;;;;5058765;28;19919;-77
2022/12/28 04:36:43;;;;;;;;;;;;;;;;;;5058257;28;19916;-75
2022/12/28 04:39:30;;;;;;;;;;;;;;;;;;5062257;28;19920;-77
2022/12/28 04:42:16;;;;;;;;;;;;;;;;;;5063671;28;19916;-79
2022/12/28 04:45:03;;;;;;;;;;;;;;;;;;5072730;28;19936;-78
2022/12/28 04:47:49;;;;;;;;;;;;;;;;;;5074382;28;20382;-75
2022/12/28 04:50:36;;;;;;;;;;;;;;;;;;5075384;28;19927;-75
2022/12/28 04:53:22;;;;;;;;;;;;;;;;;;5074029;28;20427;-76
2022/12/28 04:56:09;;;;;;;;;;;;;;;;;;5073628;28;19931;-76
2022/12/28 04:58:55;;;;;;;;;;;;;;;;;;5072007;28;19920;-78
2022/12/28 05:01:42;;;;;;;;;;;;;;;;;;5073113;28;19916;-75
2022/12/28 05:04:28;;;;;;;;;;;;;;;;;;5069000;28;19958;-75
2022/12/28 05:07:15;;;;;;;;;;;;;;;;;;5073155;28;19939;-76
2022/12/28 05:10:01;;;;;;;;;;;;;;;;;;5073743;28;20283;-77
2022/12/28 05:12:48;;;;;;;;;;;;;;;;;;5074979;28;19916;-77
2022/12/28 05:15:34;;;;;;;;;;;;;;;;;;5072275;28;19916;-76
2022/12/28 05:18:21;;;;;;;;;;;;;;;;;;5070904;28;19924;-76
2022/12/28 05:21:07;;;;;;;;;;;;;;;;;;5058112;28;19915;-74
2022/12/28 05:23:54;;;;;;;;;;;;;;;;;;5074258;28;19927;-76
2022/12/28 05:26:40;;;;;;;;;;;;;;;;;;5070430;28;19938;-77
2022/12/28 05:29:26;;;;;;;;;;;;;;;;;;5072495;28;19923;-74
2022/12/28 05:32:13;;;;;;;;;;;;;;;;;;5069538;28;20279;-75
2022/12/28 05:34:59;;;;;;;;;;;;;;;;;;5078724;28;20406;-77
2022/12/28 05:37:46;;;;;;;;;;;;;;;;;;5079170;28;19917;-77
2022/12/28 05:40:32;;;;;;;;;;;;;;;;;;5072866;28;20011;-75
2022/12/28 05:43:19;;;;;;;;;;;;;;;;;;5058989;28;20287;-75
2022/12/28 05:46:05;;;;;;;;;;;;;;;;;;5079276;28;19978;-75
2022/12/28 05:48:54;;;;;;;;;;;;;;;;;;5076158;28;19912;-75
2022/12/28 05:51:40;;;;;;;;;;;;;;;;;;5076290;28;19934;-75
2022/12/28 05:54:26;;;;;;;;;;;;;;;;;;5073007;28;20400;-75
2022/12/28 05:57:13;;;;;;;;;;;;;;;;;;5073479;28;19927;-75
2022/12/28 05:59:59;;;;;;;;;;;;;;;;;;5078716;28;19919;-77
2022/12/28 06:02:46;;;;;;;;;;;;;;;;;;5075452;28;20081;-75
2022/12/28 06:05:32;;;;;;;;;;;;;;;;;;5072442;28;20485;-76
2022/12/28 06:08:19;;;;;;;;;;;;;;;;;;5074466;28;19915;-76
2022/12/28 06:11:05;;;;;;;;;;;;;;;;;;5080182;28;19947;-74
2022/12/28 06:13:52;;;;;;;;;;;;;;;;;;5074563;28;19927;-78
2022/12/28 06:16:39;;;;;;;;;;;;;;;;;;5065395;28;19931;-78
2022/12/28 06:19:26;;;;;;;;;;;;;;;;;;5070061;28;19920;-76
2022/12/28 06:22:12;;;;;;;;;;;;;;;;;;5073418;28;19923;-75
2022/12/28 06:24:59;;;;;;;;;;;;;;;;;;5073198;28;19926;-76
2022/12/28 06:27:46;;;;;;;;;;;;;;;;;;5078413;28;19931;-74
2022/12/28 06:30:32;;;;;;;;;;;;;;;;;;5073156;28;19920;-76
2022/12/28 06:33:19;;;;;;;;;;;;;;;;;;5059104;28;19916;-77
2022/12/28 06:36:05;;;;;;;;;;;;;;;;;;5060019;28;19943;-76
2022/12/28 06:38:51;;;;;;;;;;;;;;;;;;5075689;28;19924;-77
2022/12/28 06:41:38;;;;;;;;;;;;;;;;;;5073522;28;19912;-76
2022/12/28 06:44:24;;;;;;;;;;;;;;;;;;5072111;28;19912;-76
2022/12/28 06:47:14;;;;;;;;;;;;;;;;;;5074388;28;19916;-75
2022/12/28 06:50:00;;;;;;;;;;;;;;;;;;5074040;28;19912;-75
2022/12/28 06:52:47;;;;;;;;;;;;;;;;;;5074526;28;19932;-73
2022/12/28 06:55:33;;;;;;;;;;;;;;;;;;5074066;28;19916;-74
2022/12/28 06:58:20;;;;;;;;;;;;;;;;;;5072700;28;19920;-76
2022/12/28 07:01:06;;;;;;;;;;;;;;;;;;5073622;28;19916;-76
2022/12/28 07:03:53;;;;;;;;;;;;;;;;;;5076344;28;20569;-77
2022/12/28 07:06:39;;;;;;;;;;;;;;;;;;5076146;28;19927;-76
2022/12/28 07:09:25;;;;;;;;;;;;;;;;;;5076016;28;19939;-76
2022/12/28 07:12:12;;;;;;;;;;;;;;;;;;5063650;28;20311;-74
2022/12/28 07:14:59;;;;;;;;;;;;;;;;;;5076327;28;19909;-75
2022/12/28 07:17:45;;;;;;;;;;;;;;;;;;5073173;28;19928;-74
2022/12/28 07:20:32;;;;;;;;;;;;;;;;;;5075499;28;20510;-74
2022/12/28 07:23:18;;;;;;;;;;;;;;;;;;5074647;28;20358;-74
2022/12/28 07:26:05;;;;;;;;;;;;;;;;;;5051980;28;20563;-74
2022/12/28 07:28:58;;;;;;;;;;;;;;;;;;5055974;28;20489;-75
2022/12/28 07:31:44;;;;;;;;;;;;;;;;;;5057898;28;20613;-73
2022/12/28 07:34:31;;;;;;;;;;;;;;;;;;5056521;28;19923;-75
2022/12/28 07:37:17;;;;;;;;;;;;;;;;;;5053996;28;20299;-75
2022/12/28 07:40:04;;;;;;;;;;;;;;;;;;5051695;28;20408;-75
2022/12/28 07:42:50;;;;;;;;;;;;;;;;;;5056315;28;19913;-75
2022/12/28 07:45:37;;;;;;;;;;;;;;;;;;5048483;28;20830;-74
2022/12/28 07:48:24;;;;;;;;;;;;;;;;;;5054113;28;20054;-75
2022/12/28 07:51:10;;;;;;;;;;;;;;;;;;5051271;28;19917;-76
2022/12/28 07:53:57;;;;;;;;;;;;;;;;;;5053436;28;19917;-74
2022/12/28 07:56:43;;;;;;;;;;;;;;;;;;5051888;28;19916;-75
2022/12/28 07:59:30;;;;;;;;;;;;;;;;;;5048981;28;19931;-78
2022/12/28 08:02:16;;;;;;;;;;;;;;;;;;5056151;28;19912;-78
2022/12/28 08:05:03;;;;;;;;;;;;;;;;;;5051708;28;20859;-77
2022/12/28 08:07:49;;;;;;;;;;;;;;;;;;5053858;28;20601;-75
2022/12/28 08:10:36;;;;;;;;;;;;;;;;;;5054788;28;19923;-76
2022/12/28 08:13:22;;;;;;;;;;;;;;;;;;5057631;28;19921;-75
2022/12/28 08:16:09;;;;;;;;;;;;;;;;;;5051223;28;19916;-76
2022/12/28 08:18:55;;;;;;;;;;;;;;;;;;5052859;28;19936;-74
2022/12/28 08:21:42;;;;;;;;;;;;;;;;;;5050899;28;19912;-75
2022/12/28 08:24:28;;;;;;;;;;;;;;;;;;5063237;28;19936;-77
2022/12/28 08:27:15;;;;;;;;;;;;;;;;;;5065808;28;19912;-77
2022/12/28 08:30:01;;;;;;;;;;;;;;;;;;5057986;28;20279;-76
2022/12/28 08:32:48;;;;;;;;;;;;;;;;;;5073334;28;19912;-77
2022/12/28 08:35:34;;;;;;;;;;;;;;;;;;5069858;28;19922;-75
2022/12/28 08:38:21;;;;;;;;;;;;;;;;;;5069741;28;19931;-78
2022/12/28 08:41:07;;;;;;;;;;;;;;;;;;5073361;28;19916;-76
2022/12/28 08:43:53;;;;;;;;;;;;;;;;;;5068213;28;19916;-75
2022/12/28 08:46:40;;;;;;;;;;;;;;;;;;5067948;28;20284;-78
2022/12/28 08:49:27;;;;;;;;;;;;;;;;;;5067177;28;19912;-76
2022/12/28 08:52:13;;;;;;;;;;;;;;;;;;5075431;28;19916;-74
2022/12/28 08:54:59;;;;;;;;;;;;;;;;;;5072975;28;20388;-75
2022/12/28 08:57:46;;;;;;;;;;;;;;;;;;5073703;28;19916;-76
2022/12/28 09:00:32;;;;;;;;;;;;;;;;;;5075967;28;19927;-73
2022/12/28 09:03:19;;;;;;;;;;;;;;;;;;5065340;28;20376;-74
2022/12/28 09:06:05;;;;;;;;;;;;;;;;;;5069849;28;19927;-75
2022/12/28 09:08:52;;;;;;;;;;;;;;;;;;5068119;28;19928;-74
2022/12/28 09:11:39;;;;;;;;;;;;;;;;;;5073281;28;20372;-74
2022/12/28 09:14:25;;;;;;;;;;;;;;;;;;5074633;28;20109;-75
2022/12/28 09:17:12;;;;;;;;;;;;;;;;;;5073943;28;19920;-76
2022/12/28 09:19:58;;;;;;;;;;;;;;;;;;5071479;28;19931;-77
2022/12/28 09:22:45;;;;;;;;;;;;;;;;;;5074128;28;19923;-79
2022/12/28 09:25:31;;;;;;;;;;;;;;;;;;5056036;28;19991;-76
2022/12/28 09:28:17;;;;;;;;;;;;;;;;;;5071116;28;19923;-78
2022/12/28 09:31:04;;;;;;;;;;;;;;;;;;5072498;28;19912;-77
2022/12/28 09:34:00;;;;;;;;;;;;;;;;;;5068977;28;19912;-76
2022/12/28 09:36:46;;;;;;;;;;;;;;;;;;5075386;28;19912;-75
2022/12/28 09:39:33;;;;;;;;;;;;;;;;;;5077154;28;20616;-76
2022/12/28 09:42:24;;;;;;;;;;;;;;;;;;5061065;28;19920;-76
2022/12/28 09:45:10;;;;;;;;;;;;;;;;;;5078323;28;19916;-76
2022/12/28 09:47:57;;;;;;;;;;;;;;;;;;5076548;28;20390;-75
2022/12/28 09:50:43;;;;;;;;;;;;;;;;;;5073554;28;19947;-77
2022/12/28 09:53:30;;;;;;;;;;;;;;;;;;5074357;28;20387;-75
2022/12/28 09:56:16;;;;;;;;;;;;;;;;;;5080762;28;19923;-73
2022/12/28 09:59:03;;;;;;;;;;;;;;;;;;5063082;28;19927;-75
2022/12/28 10:01:49;;;;;;;;;;;;;;;;;;5076088;28;19909;-74
2022/12/28 10:04:36;;;;;;;;;;;;;;;;;;5069286;28;19920;-74
2022/12/28 10:07:22;;;;;;;;;;;;;;;;;;5051301;28;19912;-76
2022/12/28 10:10:09;;;;;;;;;;;;;;;;;;5075377;28;19923;-76
2022/12/28 10:12:55;;;;;;;;;;;;;;;;;;5076791;28;19927;-75
2022/12/28 10:15:42;;;;;;;;;;;;;;;;;;5073254;28;19916;-75
2022/12/28 10:18:28;;;;;;;;;;;;;;;;;;5072164;28;19920;-77
2022/12/28 10:21:15;;;;;;;;;;;;;;;;;;5074223;28;20406;-78
2022/12/28 10:24:01;;;;;;;;;;;;;;;;;;5077191;28;19924;-80
2022/12/28 10:26:48;;;;;;;;;;;;;;;;;;5071236;28;19920;-78
2022/12/28 10:29:35;;;;;;;;;;;;;;;;;;5069115;28;19924;-82
2022/12/28 10:32:22;;;;;;;;;;;;;;;;;;5069139;28;19923;-82
2022/12/28 10:35:08;;;;;;;;;;;;;;;;;;5058199;28;20483;-79
2022/12/28 10:37:54;;;;;;;;;;;;;;;;;;5076506;28;19920;-79
2022/12/28 10:40:41;;;;;;;;;;;;;;;;;;5074181;28;19919;-81
2022/12/28 10:43:28;;;;;;;;;;;;;;;;;;5066241;28;19951;-79
2022/12/28 10:46:14;;;;;;;;;;;;;;;;;;5068210;28;19920;-81
2022/12/28 10:49:02;;;;;;;;;;;;;;;;;;5073161;28;19923;-88
2022/12/28 10:51:48;;;;;;;;;;;;;;;;;;5074621;28;19920;-85
2022/12/28 10:54:35;;;;;;;;;;;;;;;;;;5071770;28;19916;-86
2022/12/28 10:57:21;;;;;;;;;;;;;;;;;;5074322;28;19942;-88
2022/12/28 11:00:08;;;;;;;;;;;;;;;;;;5074194;28;19931;-80
2022/12/28 11:02:54;;;;;;;;;;;;;;;;;;5052995;28;19916;-85
2022/12/28 11:05:41;;;;;;;;;;;;;;;;;;5067821;28;19916;-87
2022/12/28 11:08:27;;;;;;;;;;;;;;;;;;5073086;28;19923;-86
2022/12/28 11:11:14;;;;;;;;;;;;;;;;;;5054246;28;19915;-87
2022/12/28 11:14:00;;;;;;;;;;;;;;;;;;5071889;28;19922;-83
2022/12/28 11:16:47;;;;;;;;;;;;;;;;;;5069656;28;19928;-80
2022/12/28 11:19:33;;;;;;;;;;;;;;;;;;5080418;28;19962;-79
2022/12/28 11:22:21;;;;;;;;;;;;;;;;;;5072218;28;20373;-80
2022/12/28 11:25:07;;;;;;;;;;;;;;;;;;5038539;28;19931;-77
2022/12/28 11:27:54;;;;;;;;;;;;;;;;;;5051385;28;19917;-80
2022/12/28 11:30:43;;;;;;;;;;;;;;;;;;5060527;28;20155;-80
2022/12/28 11:33:29;;;;;;;;;;;;;;;;;;5052586;28;19943;-79
2022/12/28 11:36:16;;;;;;;;;;;;;;;;;;5051073;28;19912;-78
2022/12/28 11:39:02;;;;;;;;;;;;;;;;;;5056496;28;19916;-78
2022/12/28 11:41:51;;;;;;;;;;;;;;;;;;5055449;28;19916;-77
2022/12/28 11:44:37;;;;;;;;;;;;;;;;;;5051094;28;19923;-80
2022/12/28 11:47:25;;;;;;;;;;;;;;;;;;5054740;28;19926;-78
2022/12/28 11:50:12;;;;;;;;;;;;;;;;;;5054813;28;19926;-80
2022/12/28 11:52:58;;;;;;;;;;;;;;;;;;5050854;28;19931;-79
2022/12/28 11:55:45;;;;;;;;;;;;;;;;;;5049388;28;19917;-76
2022/12/28 11:58:31;;;;;;;;;;;;;;;;;;5051640;28;19917;-77
2022/12/28 12:01:18;;;;;;;;;;;;;;;;;;5046153;28;19921;-76
2022/12/28 12:04:04;;;;;;;;;;;;;;;;;;5043228;28;19928;-78
2022/12/28 12:06:51;;;;;;;;;;;;;;;;;;5048172;28;19912;-80
2022/12/28 12:09:37;;;;;;;;;;;;;;;;;;5045405;28;19921;-79
2022/12/28 12:12:24;;;;;;;;;;;;;;;;;;5048100;28;19928;-79
2022/12/28 12:15:11;;;;;;;;;;;;;;;;;;5044375;28;19955;-79
2022/12/28 12:17:57;;;;;;;;;;;;;;;;;;5041328;28;19917;-78
2022/12/28 12:20:44;;;;;;;;;;;;;;;;;;5046412;28;19924;-78
2022/12/28 12:23:30;;;;;;;;;;;;;;;;;;5050980;28;19916;-80
2022/12/28 12:26:17;;;;;;;;;;;;;;;;;;5071880;28;19920;-80
2022/12/28 12:29:04;;;;;;;;;;;;;;;;;;5052257;28;20562;-80
2022/12/28 12:31:50;;;;;;;;;;;;;;;;;;5067654;28;19913;-84
2022/12/28 12:34:37;;;;;;;;;;;;;;;;;;5071451;28;19920;-81
2022/12/28 12:37:24;;;;;;;;;;;;;;;;;;5075065;28;19927;-79
2022/12/28 12:40:11;;;;;;;;;;;;;;;;;;5069414;28;19939;-80
2022/12/28 12:42:57;;;;;;;;;;;;;;;;;;5070349;28;19916;-81
2022/12/28 12:45:44;;;;;;;;;;;;;;;;;;5076898;28;19919;-81
2022/12/28 12:48:31;;;;;;;;;;;;;;;;;;5075585;28;19995;-84
2022/12/28 12:51:17;;;;;;;;;;;;;;;;;;5058461;28;19958;-84
2022/12/28 12:54:04;;;;;;;;;;;;;;;;;;5079337;28;19931;-84
2022/12/28 12:56:50;;;;;;;;;;;;;;;;;;5076335;28;19922;-84
2022/12/28 12:59:37;;;;;;;;;;;;;;;;;;5079916;28;19920;-84
2022/12/28 13:02:23;;;;;;;;;;;;;;;;;;5077778;28;20457;-85
2022/12/28 13:05:10;;;;;;;;;;;;;;;;;;5072809;28;19912;-86
2022/12/28 13:08:00;;;;;;;;;;;;;;;;;;5075085;28;19919;-83
2022/12/28 13:10:46;;;;;;;;;;;;;;;;;;5078129;28;19912;-84
2022/12/28 13:13:33;;;;;;;;;;;;;;;;;;5077566;28;19912;-83
2022/12/28 13:16:22;;;;;;;;;;;;;;;;;;5077128;28;20374;-84
2022/12/28 13:19:08;;;;;;;;;;;;;;;;;;5078198;28;19920;-83
2022/12/28 13:21:57;;;;;;;;;;;;;;;;;;5077004;28;19922;-84
2022/12/28 13:24:44;;;;;;;;;;;;;;;;;;5079747;28;19931;-87
2022/12/28 13:27:31;;;;;;;;;;;;;;;;;;5064764;28;20302;-85
2022/12/28 13:30:17;;;;;;;;;;;;;;;;;;5061715;28;19916;-84
2022/12/28 13:33:04;;;;;;;;;;;;;;;;;;5071095;28;19921;-83
2022/12/28 13:35:50;;;;;;;;;;;;;;;;;;5076575;28;19914;-85
2022/12/28 13:38:37;;;;;;;;;;;;;;;;;;5069568;28;19912;-86
2022/12/28 13:41:23;;;;;;;;;;;;;;;;;;5071575;28;19916;-83
2022/12/28 13:44:10;;;;;;;;;;;;;;;;;;5076323;28;19941;-84
2022/12/28 13:46:56;;;;;;;;;;;;;;;;;;5076789;28;20391;-85
2022/12/28 13:49:43;;;;;;;;;;;;;;;;;;5074977;28;19912;-82
2022/12/28 13:52:29;;;;;;;;;;;;;;;;;;5078560;28;19927;-82
2022/12/28 13:55:16;;;;;;;;;;;;;;;;;;5077725;28;19918;-84
2022/12/28 13:58:02;;;;;;;;;;;;;;;;;;5078425;28;19912;-83
2022/12/28 14:00:49;;;;;;;;;;;;;;;;;;5059468;28;19928;-84
2022/12/28 14:03:35;;;;;;;;;;;;;;;;;;5072732;28;19916;-83
2022/12/28 14:06:22;;;;;;;;;;;;;;;;;;5076396;28;19916;-83
2022/12/28 14:09:08;;;;;;;;;;;;;;;;;;5063203;28;21092;-83
2022/12/28 14:11:55;;;;;;;;;;;;;;;;;;5070992;28;19913;-84
2022/12/28 14:14:42;;;;;;;;;;;;;;;;;;5077861;28;19922;-83
2022/12/28 14:17:28;;;;;;;;;;;;;;;;;;5081543;28;19919;-85
2022/12/28 14:20:15;;;;;;;;;;;;;;;;;;5071943;28;19930;-84
2022/12/28 14:23:01;;;;;;;;;;;;;;;;;;5070998;28;19912;-82
2022/12/28 14:25:48;;;;;;;;;;;;;;;;;;5079262;28;19924;-85
2022/12/28 14:28:34;;;;;;;;;;;;;;;;;;5072991;28;19909;-84
2022/12/28 14:31:21;;;;;;;;;;;;;;;;;;5073299;28;20430;-83
2022/12/28 14:34:07;;;;;;;;;;;;;;;;;;5075837;28;19927;-85
2022/12/28 14:36:54;;;;;;;;;;;;;;;;;;5064410;28;19921;-84
2022/12/28 14:39:41;;;;;;;;;;;;;;;;;;5064550;28;19920;-83
2022/12/28 14:42:28;;;;;;;;;;;;;;;;;;5078645;28;19916;-84
2022/12/28 14:45:15;;;;;;;;;;;;;;;;;;5073899;28;20394;-84
2022/12/28 14:48:01;;;;;;;;;;;;;;;;;;5070816;28;19916;-84
2022/12/28 14:50:48;;;;;;;;;;;;;;;;;;5061425;28;19924;-83
2022/12/28 14:53:37;;;;;;;;;;;;;;;;;;5075165;28;19942;-84
2022/12/28 14:56:23;;;;;;;;;;;;;;;;;;5075260;28;20455;-83
2022/12/28 14:59:10;;;;;;;;;;;;;;;;;;5056555;28;19927;-82
2022/12/28 15:01:57;;;;;;;;;;;;;;;;;;5076801;28;19959;-83
2022/12/28 15:04:44;;;;;;;;;;;;;;;;;;5074334;28;19912;-83
2022/12/28 15:07:31;;;;;;;;;;;;;;;;;;5076442;28;19987;-83
2022/12/28 15:10:17;;;;;;;;;;;;;;;;;;5068384;28;20282;-83
2022/12/28 15:13:04;;;;;;;;;;;;;;;;;;5077765;28;19919;-83
2022/12/28 15:15:50;;;;;;;;;;;;;;;;;;5075243;28;19927;-84
2022/12/28 15:18:37;;;;;;;;;;;;;;;;;;5077697;28;20402;-84
2022/12/28 15:21:23;;;;;;;;;;;;;;;;;;5072483;28;19924;-83
2022/12/28 15:24:10;;;;;;;;;;;;;;;;;;5076739;28;19927;-81
2022/12/28 15:26:56;;;;;;;;;;;;;;;;;;5052966;28;19912;-81
2022/12/28 15:29:43;;;;;;;;;;;;;;;;;;5071272;28;19917;-84
2022/12/28 15:32:29;;;;;;;;;;;;;;;;;;5057408;28;20500;-83
2022/12/28 15:35:16;;;;;;;;;;;;;;;;;;5075704;28;19915;-83
2022/12/28 15:38:05;;;;;;;;;;;;;;;;;;5076764;28;19912;-82
2022/12/28 15:40:51;;;;;;;;;;;;;;;;;;5080800;28;19926;-83
2022/12/28 15:43:38;;;;;;;;;;;;;;;;;;5074496;28;19935;-83
2022/12/28 15:46:24;;;;;;;;;;;;;;;;;;5073961;28;20480;-83
2022/12/28 15:49:11;;;;;;;;;;;;;;;;;;5063391;28;19939;-85
2022/12/28 15:51:58;;;;;;;;;;;;;;;;;;5071871;28;19927;-85
2022/12/28 15:54:45;;;;;;;;;;;;;;;;;;5057976;28;19923;-84
2022/12/28 15:57:31;;;;;;;;;;;;;;;;;;5071717;28;19912;-83
2022/12/28 16:00:19;;;;;;;;;;;;;;;;;;5075109;28;20384;-82
2022/12/28 16:03:05;;;;;;;;;;;;;;;;;;5067848;28;19912;-82
2022/12/28 16:05:52;;;;;;;;;;;;;;;;;;5067143;28;19916;-83
2022/12/28 16:08:39;;;;;;;;;;;;;;;;;;5064701;28;20420;-82
2022/12/28 16:11:25;;;;;;;;;;;;;;;;;;5067200;28;20021;-83
2022/12/28 16:14:12;;;;;;;;;;;;;;;;;;5071546;28;19912;-81
2022/12/28 16:16:58;;;;;;;;;;;;;;;;;;5070753;28;20376;-81
2022/12/28 16:19:45;;;;;;;;;;;;;;;;;;5067435;28;19920;-85
2022/12/28 16:22:31;;;;;;;;;;;;;;;;;;5064091;28;20372;-82
2022/12/28 16:25:21;;;;;;;;;;;;;;;;;;5072576;28;19920;-80
2022/12/28 16:28:07;;;;;;;;;;;;;;;;;;5074827;28;19936;-82
2022/12/28 16:30:54;;;;;;;;;;;;;;;;;;5071783;28;20390;-82
2022/12/28 16:33:40;;;;;;;;;;;;;;;;;;5068456;28;19917;-82
2022/12/28 16:36:26;;;;;;;;;;;;;;;;;;5070880;28;19958;-82
2022/12/28 16:39:13;;;;;;;;;;;;;;;;;;5077070;28;19928;-83
2022/12/28 16:41:59;;;;;;;;;;;;;;;;;;5055895;28;20583;-84
2022/12/28 16:44:46;;;;;;;;;;;;;;;;;;5077856;28;19913;-86
2022/12/28 16:47:32;;;;;;;;;;;;;;;;;;5076455;28;20021;-86
2022/12/28 16:50:19;;;;;;;;;;;;;;;;;;5058671;28;19923;-84
2022/12/28 16:53:05;;;;;;;;;;;;;;;;;;5056553;28;19919;-85
2022/12/28 16:55:52;;;;;;;;;;;;;;;;;;5075339;28;19927;-86
2022/12/28 16:58:38;;;;;;;;;;;;;;;;;;5071978;28;20357;-84
2022/12/28 17:01:25;;;;;;;;;;;;;;;;;;5073414;28;19931;-85
2022/12/28 17:04:11;;;;;;;;;;;;;;;;;;5076113;28;19912;-83
2022/12/28 17:07:00;;;;;;;;;;;;;;;;;;5071042;28;19920;-83
2022/12/28 17:09:47;;;;;;;;;;;;;;;;;;5069330;28;19920;-85
2022/12/28 17:12:33;;;;;;;;;;;;;;;;;;5063255;28;19919;-85
2022/12/28 17:15:20;;;;;;;;;;;;;;;;;;5053914;28;19920;-84
2022/12/28 17:18:06;;;;;;;;;;;;;;;;;;5065390;28;19920;-85
2022/12/28 17:20:53;;;;;;;;;;;;;;;;;;5058204;28;20677;-83
2022/12/28 17:23:39;;;;;;;;;;;;;;;;;;5064150;28;19923;-83
2022/12/28 17:26:26;;;;;;;;;;;;;;;;;;5068008;28;19936;-89
2022/12/28 17:29:12;;;;;;;;;;;;;;;;;;5054422;28;19912;-88
2022/12/28 17:31:59;;;;;;;;;;;;;;;;;;5046138;28;19916;-84
2022/12/28 17:34:46;;;;;;;;;;;;;;;;;;5069179;28;19916;-86
2022/12/28 17:37:32;;;;;;;;;;;;;;;;;;5075934;28;19913;-85
2022/12/28 17:40:19;;;;;;;;;;;;;;;;;;5067749;28;19927;-86
2022/12/28 17:43:05;;;;;;;;;;;;;;;;;;5069585;28;19912;-86
2022/12/28 17:45:52;;;;;;;;;;;;;;;;;;5068128;28;19923;-86
2022/12/28 17:48:38;;;;;;;;;;;;;;;;;;5073959;28;19923;-86
2022/12/28 17:51:25;;;;;;;;;;;;;;;;;;5073326;28;19920;-86
2022/12/28 17:54:11;;;;;;;;;;;;;;;;;;5072879;28;19934;-85
2022/12/28 17:56:58;;;;;;;;;;;;;;;;;;5070685;28;19912;-84
2022/12/28 17:59:44;;;;;;;;;;;;;;;;;;5074745;28;19927;-84
2022/12/28 18:02:31;;;;;;;;;;;;;;;;;;5076071;28;19917;-84
2022/12/28 18:05:18;;;;;;;;;;;;;;;;;;5072324;28;19945;-77
2022/12/28 18:08:04;;;;;;;;;;;;;;;;;;5063048;28;19912;-78
2022/12/28 18:10:51;;;;;;;;;;;;;;;;;;5069003;28;19920;-79
2022/12/28 18:13:37;;;;;;;;;;;;;;;;;;5070105;28;19912;-81
2022/12/28 18:16:24;;;;;;;;;;;;;;;;;;5075129;28;20343;-82
2022/12/28 18:19:10;;;;;;;;;;;;;;;;;;5069359;28;20113;-84
2022/12/28 18:21:57;;;;;;;;;;;;;;;;;;5068880;28;19924;-80
2022/12/28 18:24:44;;;;;;;;;;;;;;;;;;5068666;28;20391;-81
2022/12/28 18:27:30;;;;;;;;;;;;;;;;;;5071066;28;19919;-84
2022/12/28 18:30:17;;;;;;;;;;;;;;;;;;5075498;28;19916;-78
2022/12/28 18:33:03;;;;;;;;;;;;;;;;;;5066136;28;20367;-82
2022/12/28 18:35:50;;;;;;;;;;;;;;;;;;5071788;28;19934;-81
2022/12/28 18:38:37;;;;;;;;;;;;;;;;;;5075389;28;19916;-83
2022/12/28 18:41:24;;;;;;;;;;;;;;;;;;5069627;28;19923;-83
2022/12/28 18:44:10;;;;;;;;;;;;;;;;;;5053674;28;19926;-80
2022/12/28 18:46:57;;;;;;;;;;;;;;;;;;5074211;28;19920;-83
2022/12/28 18:49:43;;;;;;;;;;;;;;;;;;5068434;28;19957;-83
2022/12/28 18:52:34;;;;;;;;;;;;;;;;;;5071796;28;19916;-83
2022/12/28 18:55:20;;;;;;;;;;;;;;;;;;5067065;28;19922;-81
2022/12/28 18:58:07;;;;;;;;;;;;;;;;;;5071319;28;20403;-80
2022/12/28 19:00:53;;;;;;;;;;;;;;;;;;5053043;28;19945;-89
2022/12/28 19:03:40;;;;;;;;;;;;;;;;;;5068557;28;19931;-80
2022/12/28 19:06:26;;;;;;;;;;;;;;;;;;5076231;28;19916;-79
2022/12/28 19:09:13;;;;;;;;;;;;;;;;;;5065656;28;19962;-80
2022/12/28 19:12:02;;;;;;;;;;;;;;;;;;5073642;28;20279;-79
2022/12/28 19:14:49;;;;;;;;;;;;;;;;;;5069437;28;19916;-79
2022/12/28 19:17:35;;;;;;;;;;;;;;;;;;5071801;28;19916;-77
2022/12/28 19:20:23;;;;;;;;;;;;;;;;;;5070847;28;19927;-78
2022/12/28 19:23:09;;;;;;;;;;;;;;;;;;5068103;28;19913;-79
2022/12/28 19:25:58;;;;;;;;;;;;;;;;;;5055421;28;20342;-80